Time;durP1;ratioP1;P1;durP2;ratioP2;P2;SDS_P1;SDS_P2;PMS_P1;PMS_P2;Temp;Humidity;BMP_temperature;BMP_pressure;BME280_temperature;BME280_humidity;BME280_pressure;Samples;Min_cycle;Max_cycle;Signal;HPM_P1;HPM_P2
2024/04/17 00:00:00;;;;;;;5.30;0.90;;;9.80;59.80;11.50;100957.00;;;;5452528;26;20368;-81
2024/04/17 00:02:29;;;;;;;3.45;1.38;;;9.70;59.80;11.50;100960.00;;;;5453614;26;20232;-81
2024/04/17 00:04:55;;;;;;;3.58;1.10;;;9.70;59.80;11.50;100960.00;;;;5455648;26;20287;-81
2024/04/17 00:07:23;;;;;;;2.13;0.70;;;9.70;59.80;11.50;100958.00;;;;5453048;26;20275;-80
2024/04/17 00:09:52;;;;;;;2.95;0.90;;;9.70;59.80;11.40;100960.00;;;;5456910;26;20313;-82
2024/04/17 00:12:21;;;;;;;2.00;0.68;;;9.60;59.80;11.40;100959.00;;;;5454721;26;20776;-81
2024/04/17 00:14:47;;;;;;;3.22;1.10;;;9.60;59.80;11.40;100960.00;;;;5441374;26;20295;-80
2024/04/17 00:17:16;;;;;;;3.25;0.63;;;9.50;59.80;11.30;100950.00;;;;5457739;26;20236;-81
2024/04/17 00:19:42;;;;;;;3.40;1.00;;;9.50;59.80;11.30;100961.00;;;;5457066;26;20322;-80
2024/04/17 00:22:11;;;;;;;1.70;0.68;;;9.50;59.90;11.30;100951.00;;;;5454941;26;20236;-80
2024/04/17 00:24:37;;;;;;;5.93;1.35;;;9.50;59.90;11.20;100955.00;;;;5440709;26;20271;-81
2024/04/17 00:27:08;;;;;;;4.45;0.90;;;9.50;59.90;11.20;100952.00;;;;5456999;26;20270;-81
2024/04/17 00:29:35;;;;;;;3.08;1.13;;;9.40;60.60;11.20;100949.00;;;;5433143;26;20689;-80
2024/04/17 00:32:05;;;;;;;3.20;1.33;;;9.40;60.00;11.10;100950.00;;;;5455053;26;20336;-81
2024/04/17 00:34:31;;;;;;;5.95;0.95;;;9.30;60.00;11.10;100944.00;;;;5453694;26;20236;-81
2024/04/17 00:37:00;;;;;;;2.42;0.75;;;9.30;60.10;11.10;100951.00;;;;5452002;26;20279;-80
2024/04/17 00:39:26;;;;;;;2.22;0.68;;;9.30;60.10;11.10;100949.00;;;;5452086;26;20232;-79
2024/04/17 00:41:54;;;;;;;1.98;0.73;;;9.20;60.00;11.10;100945.00;;;;5451268;26;20744;-80
2024/04/17 00:44:23;;;;;;;4.55;1.02;;;9.20;60.10;11.00;100953.00;;;;5427866;26;20259;-79
2024/04/17 00:46:52;;;;;;;3.90;0.88;;;9.20;60.10;11.00;100948.00;;;;5446428;26;20232;-80
2024/04/17 00:49:19;;;;;;;4.00;0.93;;;9.20;60.20;11.00;100953.00;;;;5452434;26;20232;-80
2024/04/17 00:51:49;;;;;;;2.10;0.80;;;9.20;60.20;11.00;100950.00;;;;5448640;26;20781;-80
2024/04/17 00:54:16;;;;;;;1.90;0.65;;;9.20;60.20;11.00;100953.00;;;;5444485;26;20273;-80
2024/04/17 00:56:45;;;;;;;2.90;0.80;;;9.10;60.20;11.00;100947.00;;;;5418722;26;20233;-80
2024/04/17 00:59:11;;;;;;;2.90;0.73;;;9.10;60.40;10.90;100951.00;;;;5449273;26;20418;-79
2024/04/17 01:01:42;;;;;;;1.88;0.50;;;9.10;60.40;10.90;100948.00;;;;5449628;26;20292;-78
2024/04/17 01:04:08;;;;;;;3.85;1.15;;;9.10;60.50;10.90;100957.00;;;;5450536;26;20358;-80
2024/04/17 01:06:37;;;;;;;2.25;0.90;;;9.10;60.50;11.00;100954.00;;;;5449800;26;20327;-78
2024/04/17 01:09:03;;;;;;;2.83;0.90;;;9.10;60.60;10.90;100942.00;;;;5450308;26;20793;-80
2024/04/17 01:11:40;;;;;;;3.55;1.25;;;9.10;60.60;10.90;100939.00;;;;5449689;26;20275;-80
2024/04/17 01:14:07;;;;;;;2.15;0.75;;;9.00;60.70;11.00;100947.00;;;;5452740;26;20282;-80
2024/04/17 01:16:36;;;;;;;3.72;1.30;;;9.10;60.60;11.00;100940.00;;;;5450840;26;20280;-78
2024/04/17 01:19:08;;;;;;;1.88;0.60;;;9.10;60.70;11.00;100934.00;;;;5430400;26;20288;-79
2024/04/17 01:21:37;;;;;;;2.53;0.80;;;9.10;60.80;11.00;100931.00;;;;5450362;26;20238;-79
2024/04/17 01:24:06;;;;;;;3.70;1.38;;;9.10;60.90;11.00;100935.00;;;;5444099;26;20270;-79
2024/04/17 01:26:35;;;;;;;2.60;0.98;;;9.10;61.00;11.10;100934.00;;;;5418320;26;20334;-79
2024/04/17 01:29:01;;;;;;;3.33;1.10;;;9.20;61.00;11.10;100943.00;;;;5451468;26;20247;-79
2024/04/17 01:31:30;;;;;;;4.55;0.90;;;9.20;61.20;11.10;100937.00;;;;5452555;26;20228;-80
2024/04/17 01:33:56;;;;;;;1.92;0.80;;;9.20;61.20;11.10;100951.00;;;;5441532;26;20385;-79
2024/04/17 01:36:24;;;;;;;1.80;0.77;;;9.20;61.30;11.10;100946.00;;;;5448781;26;20328;-78
2024/04/17 01:38:50;;;;;;;2.28;0.80;;;9.30;61.40;11.20;100946.00;;;;5453408;26;20235;-80
2024/04/17 01:41:22;;;;;;;2.15;0.77;;;9.30;61.50;11.20;100949.00;;;;5454016;26;20288;-79
2024/04/17 01:43:48;;;;;;;3.10;1.13;;;9.30;61.50;11.20;100951.00;;;;5443997;26;20240;-80
2024/04/17 01:46:17;;;;;;;3.78;0.85;;;9.40;61.60;11.20;100953.00;;;;5451982;26;20287;-81
2024/04/17 01:48:43;;;;;;;3.90;1.08;;;9.40;61.60;11.30;100950.00;;;;5450353;26;20248;-79
2024/04/17 01:51:11;;;;;;;2.47;0.80;;;9.40;61.70;11.30;100948.00;;;;5436708;26;20266;-82
2024/04/17 01:53:37;;;;;;;3.60;1.00;;;9.50;61.80;11.30;100958.00;;;;5448782;26;20248;-87
2024/04/17 01:56:07;;;;;;;2.80;0.70;;;9.50;61.80;11.30;100946.00;;;;5452133;26;20240;-87
2024/04/17 01:58:35;;;;;;;4.20;1.10;;;9.50;61.90;11.30;100946.00;;;;5432355;26;20275;-89
2024/04/17 02:01:07;;;;;;;2.30;0.95;;;9.60;62.80;11.40;100944.00;;;;5452454;26;20266;-92
2024/04/17 02:03:35;;;;;;;4.90;1.23;;;9.60;62.20;11.40;100953.00;;;;5425134;26;20783;-86
2024/04/17 02:06:04;;;;;;;3.47;1.30;;;9.60;62.30;11.50;100931.00;;;;5451948;26;20232;-90
2024/04/17 02:08:30;;;;;;;3.42;0.90;;;9.70;62.50;11.50;100933.00;;;;5451570;26;20349;-87
2024/04/17 02:10:59;;;;;;;2.42;1.10;;;9.70;62.50;11.60;100938.00;;;;5446888;26;20228;-88
2024/04/17 02:13:25;;;;;;;2.83;1.00;;;9.80;62.60;11.70;100938.00;;;;5448998;26;20705;-85
2024/04/17 02:16:02;;;;;;;1.35;0.98;;;9.90;62.70;11.60;100935.00;;;;5451908;26;20300;-86
2024/04/17 02:18:28;;;;;;;2.85;0.93;;;9.90;62.70;11.80;100933.00;;;;5452466;26;20731;-87
2024/04/17 02:20:57;;;;;;;3.60;0.80;;;9.90;62.70;11.80;100934.00;;;;5445398;26;20233;-87
2024/04/17 02:23:28;;;;;;;3.20;1.10;;;10.00;62.80;11.90;100932.00;;;;5445199;26;20246;-88
2024/04/17 02:25:56;;;;;;;2.13;0.95;;;10.00;62.80;11.90;100926.00;;;;5451715;26;20228;-88
2024/04/17 02:28:23;;;;;;;3.15;0.90;;;10.10;62.80;11.90;100933.00;;;;5434624;26;20623;-84
2024/04/17 02:30:52;;;;;;;1.85;1.27;;;10.10;62.90;12.00;100923.00;;;;5450207;26;20240;-88
2024/04/17 02:33:20;;;;;;;5.13;1.40;;;10.20;62.90;12.00;100931.00;;;;5445858;26;20366;-87
2024/04/17 02:35:49;;;;;;;4.95;1.30;;;10.20;62.80;12.00;100933.00;;;;5451356;26;20231;-87
2024/04/17 02:38:16;;;;;;;4.07;1.30;;;10.20;62.80;12.10;100931.00;;;;5451341;26;20313;-83
2024/04/17 02:40:45;;;;;;;1.92;0.88;;;10.30;62.80;12.10;100928.00;;;;5449879;26;20563;-88
2024/04/17 02:43:11;;;;;;;3.85;1.00;;;10.30;62.80;12.20;100931.00;;;;5443539;26;20242;-87
2024/04/17 02:45:39;;;;;;;2.20;0.88;;;10.30;62.70;12.20;100932.00;;;;5451011;26;20232;-88
2024/04/17 02:48:06;;;;;;;4.88;1.08;;;10.40;62.70;12.20;100937.00;;;;5449021;26;20248;-88
2024/04/17 02:50:41;;;;;;;2.17;0.85;;;10.40;62.70;12.20;100931.00;;;;5451353;26;20266;-83
2024/04/17 02:53:07;;;;;;;2.05;0.95;;;10.40;62.80;12.30;100930.00;;;;5448916;26;20228;-88
2024/04/17 02:55:37;;;;;;;2.85;0.90;;;10.40;62.70;12.30;100928.00;;;;5451261;26;20240;-86
2024/04/17 02:58:03;;;;;;;2.63;1.20;;;10.40;62.70;12.30;100936.00;;;;5448431;26;20311;-84
2024/04/17 03:00:32;;;;;;;1.73;1.00;;;10.50;62.80;12.40;100934.00;;;;5451125;26;20291;-85
2024/04/17 03:03:00;;;;;;;3.30;1.10;;;10.50;62.80;12.40;100940.00;;;;5445795;26;20305;-85
2024/04/17 03:05:29;;;;;;;3.03;1.00;;;10.50;62.80;12.40;100938.00;;;;5450286;26;20236;-85
2024/04/17 03:07:58;;;;;;;1.60;0.98;;;10.50;62.80;12.40;100942.00;;;;5451080;26;20344;-88
2024/04/17 03:10:27;;;;;;;0.95;0.82;;;10.60;62.80;12.40;100933.00;;;;5448826;26;20275;-84
2024/04/17 03:12:53;;;;;;;1.67;1.10;;;10.60;62.80;12.40;100935.00;;;;5443648;26;22542;-85
2024/04/17 03:15:21;;;;;;;1.58;1.05;;;10.60;62.80;12.50;100943.00;;;;5447810;26;20269;-86
2024/04/17 03:17:47;;;;;;;1.27;1.02;;;10.60;62.80;12.50;100942.00;;;;5450081;26;20310;-88
2024/04/17 03:20:16;;;;;;;2.92;1.08;;;10.70;62.80;12.40;100931.00;;;;5432756;26;20281;-88
2024/04/17 03:22:42;;;;;;;2.20;0.85;;;10.70;62.70;12.40;100948.00;;;;5435068;26;20240;-90
2024/04/17 03:25:14;;;;;;;1.23;0.90;;;10.70;62.70;12.40;100936.00;;;;5451834;26;20232;-93
2024/04/17 03:27:40;;;;;;;1.70;0.90;;;10.70;62.70;12.40;100937.00;;;;5454810;26;20291;-94
2024/04/17 03:30:10;;;;;;;2.90;1.13;;;10.70;62.60;12.40;100944.00;;;;5453141;26;20340;-93
2024/04/17 03:32:36;;;;;;;1.92;0.82;;;10.70;62.60;12.50;100943.00;;;;5453667;26;20236;-92
2024/04/17 03:35:07;;;;;;;2.47;1.10;;;10.70;62.60;12.50;100945.00;;;;5451482;26;20284;-94
2024/04/17 03:37:36;;;;;;;1.45;0.70;;;10.70;62.60;12.50;100952.00;;;;5455101;26;20228;-94
2024/04/17 03:40:04;;;;;;;1.77;0.70;;;10.70;62.60;12.50;100957.00;;;;5465009;26;20244;-87
2024/04/17 03:42:36;;;;;;;1.25;0.75;;;10.70;62.60;12.50;100948.00;;;;5463477;26;20271;-93
2024/04/17 03:45:05;;;;;;;2.63;0.88;;;10.70;62.50;12.50;100954.00;;;;5456264;26;20354;-93
2024/04/17 03:47:34;;;;;;;1.30;0.80;;;10.70;62.50;12.50;100964.00;;;;5452208;26;20292;-96
2024/04/17 03:50:03;;;;;;;1.23;0.70;;;10.80;62.60;12.50;100961.00;;;;5449201;26;20353;-92
2024/04/17 03:52:33;;;;;;;1.00;0.70;;;10.80;62.70;12.50;100965.00;;;;5446857;26;20224;-90
2024/04/17 03:54:59;;;;;;;5.07;1.00;;;10.80;62.70;12.50;100961.00;;;;5448174;26;20232;-84
2024/04/17 03:57:30;;;;;;;0.93;0.50;;;10.80;62.70;12.40;100967.00;;;;5452102;26;20224;-94
2024/04/17 03:59:59;;;;;;;0.90;0.50;;;10.80;62.70;12.50;100966.00;;;;5449473;26;20232;-95
2024/04/17 04:02:28;;;;;;;0.80;0.60;;;10.80;62.70;12.50;100968.00;;;;5439311;26;20263;-93
2024/04/17 04:04:54;;;;;;;1.00;0.60;;;10.80;62.70;12.50;100965.00;;;;5440235;26;20231;-91
2024/04/17 04:07:22;;;;;;;1.35;0.47;;;10.80;62.70;12.50;100971.00;;;;5448263;26;20228;-92
2024/04/17 04:09:49;;;;;;;2.28;0.50;;;10.80;62.70;12.50;100970.00;;;;5454792;26;20236;-92
2024/04/17 04:12:18;;;;;;;2.00;0.30;;;10.80;62.80;12.50;100970.00;;;;5451587;26;20229;-90
2024/04/17 04:14:44;;;;;;;3.83;0.40;;;10.80;62.70;12.50;100962.00;;;;5455481;26;20228;-96
2024/04/17 04:17:15;;;;;;;1.00;0.20;;;10.80;62.50;12.40;100957.00;;;;5455019;26;20232;-93
2024/04/17 04:19:43;;;;;;;0.52;0.30;;;10.80;62.40;12.40;100962.00;;;;5463968;26;20240;-95
2024/04/17 04:22:11;;;;;;;0.90;0.15;;;10.80;62.30;12.40;100970.00;;;;5454159;26;20269;-92
2024/04/17 04:24:38;;;;;;;0.93;0.28;;;10.80;62.30;12.40;100968.00;;;;5459541;26;20232;-89
2024/04/17 04:27:08;;;;;;;5.68;0.82;;;10.70;62.10;12.40;100963.00;;;;5458027;26;20275;-92
2024/04/17 04:29:35;;;;;;;0.80;0.30;;;10.70;62.10;12.40;100966.00;;;;5468544;26;20276;-88
2024/04/17 04:32:03;;;;;;;1.05;0.40;;;10.80;62.20;12.40;100967.00;;;;5470284;26;20289;-83
2024/04/17 04:34:32;;;;;;;0.80;0.40;;;10.80;62.30;12.40;100971.00;;;;5463967;26;20366;-94
2024/04/17 04:37:01;;;;;;;1.13;0.38;;;10.80;62.30;12.40;100967.00;;;;5457430;26;22106;-96
2024/04/17 04:39:27;;;;;;;1.15;0.30;;;10.70;62.20;12.40;100969.00;;;;5461937;26;20375;-96
2024/04/17 04:41:56;;;;;;;1.15;0.65;;;10.70;62.20;12.40;100967.00;;;;5456664;26;20271;-95
2024/04/17 04:44:22;;;;;;;0.38;0.20;;;10.70;62.20;12.40;100962.00;;;;5453763;26;20236;-95
2024/04/17 04:46:51;;;;;;;0.75;0.20;;;10.70;62.30;12.40;100974.00;;;;5453332;26;20284;-91
2024/04/17 04:49:17;;;;;;;1.10;0.32;;;10.70;62.40;12.50;100969.00;;;;5453391;26;20555;-95
2024/04/17 04:51:49;;;;;;;3.60;0.45;;;10.70;62.50;12.40;100973.00;;;;5455385;26;20240;-93
2024/04/17 04:54:15;;;;;;;0.93;0.20;;;10.70;62.50;12.50;100977.00;;;;5423416;26;20272;-90
2024/04/17 04:56:44;;;;;;;1.88;0.50;;;10.70;62.60;12.50;100980.00;;;;5452302;26;20777;-94
2024/04/17 04:59:10;;;;;;;3.28;0.50;;;10.70;62.60;12.50;100980.00;;;;5441753;26;20315;-90
2024/04/17 05:01:39;;;;;;;1.65;0.47;;;10.70;62.70;12.50;100975.00;;;;5448980;26;20689;-94
2024/04/17 05:04:05;;;;;;;1.35;0.40;;;10.70;62.70;12.50;100979.00;;;;5445237;26;20308;-93
2024/04/17 05:06:34;;;;;;;0.30;0.20;;;10.70;62.70;12.50;100980.00;;;;5435486;26;20314;-94
2024/04/17 05:09:03;;;;;;;1.55;0.40;;;10.70;62.70;12.50;100976.00;;;;5450366;26;20282;-89
2024/04/17 05:11:31;;;;;;;1.38;0.45;;;10.70;62.70;12.50;100978.00;;;;5433449;26;20286;-91
2024/04/17 05:13:57;;;;;;;0.60;0.30;;;10.70;62.70;12.50;100982.00;;;;5438496;26;20335;-93
2024/04/17 05:16:26;;;;;;;2.28;0.45;;;10.70;62.60;12.50;100981.00;;;;5454181;26;20293;-94
2024/04/17 05:18:52;;;;;;;2.63;0.57;;;10.70;62.70;12.40;100978.00;;;;5451111;26;20283;-95
2024/04/17 05:21:21;;;;;;;2.13;0.43;;;10.70;62.60;12.40;100977.00;;;;5450307;26;20651;-94
2024/04/17 05:23:47;;;;;;;1.77;0.40;;;10.70;62.50;12.40;100975.00;;;;5451590;26;20236;-94
2024/04/17 05:26:18;;;;;;;1.25;0.32;;;10.60;62.50;12.40;100978.00;;;;5452948;26;20232;-91
2024/04/17 05:28:44;;;;;;;0.90;0.28;;;10.60;62.50;12.40;100977.00;;;;5427502;26;20240;-92
2024/04/17 05:31:13;;;;;;;0.82;0.35;;;10.60;62.50;12.30;100971.00;;;;5447657;26;20236;-91
2024/04/17 05:33:39;;;;;;;1.77;0.30;;;10.50;62.40;12.30;100978.00;;;;5437663;26;20340;-93
2024/04/17 05:36:08;;;;;;;1.77;0.60;;;10.50;62.40;12.30;100970.00;;;;5448947;26;20274;-89
2024/04/17 05:38:34;;;;;;;1.02;0.50;;;10.50;62.50;12.30;100966.00;;;;5446356;26;20389;-87
2024/04/17 05:41:03;;;;;;;2.30;0.40;;;10.40;62.40;12.20;100972.00;;;;5437060;26;20288;-91
2024/04/17 05:43:32;;;;;;;1.83;0.45;;;10.40;62.50;12.20;100971.00;;;;5454609;26;20228;-92
2024/04/17 05:46:00;;;;;;;0.50;0.30;;;10.40;62.60;12.20;100966.00;;;;5439379;26;20241;-90
2024/04/17 05:48:26;;;;;;;0.80;0.40;;;10.40;62.70;12.20;100973.00;;;;5451881;26;20271;-90
2024/04/17 05:50:55;;;;;;;2.00;0.68;;;10.40;62.70;12.20;100963.00;;;;5451377;26;20465;-90
2024/04/17 05:53:21;;;;;;;2.15;0.70;;;10.40;62.90;12.30;100974.00;;;;5445310;26;20233;-86
2024/04/17 05:55:50;;;;;;;0.60;0.32;;;10.40;63.00;12.30;100969.00;;;;5443404;26;20224;-83
2024/04/17 05:58:16;;;;;;;1.58;0.50;;;10.40;63.20;12.30;100972.00;;;;5451349;26;20314;-84
2024/04/17 06:00:47;;;;;;;2.42;0.63;;;10.40;63.20;12.30;100968.00;;;;5442737;26;20772;-89
2024/04/17 06:03:13;;;;;;;1.48;0.47;;;10.40;63.40;12.40;100982.00;;;;5459269;26;20319;-89
2024/04/17 06:05:42;;;;;;;1.23;0.73;;;10.50;63.50;12.40;100983.00;;;;5449824;26;20236;-83
2024/04/17 06:08:08;;;;;;;3.78;1.10;;;10.50;63.60;12.40;100984.00;;;;5450083;26;20812;-86
2024/04/17 06:10:37;;;;;;;2.55;0.80;;;10.60;63.70;12.50;100987.00;;;;5452557;26;20270;-85
2024/04/17 06:13:03;;;;;;;1.15;0.70;;;10.60;63.80;12.50;100985.00;;;;5451155;26;20244;-86
2024/04/17 06:15:35;;;;;;;1.80;0.70;;;10.60;63.80;12.60;100980.00;;;;5449832;26;20321;-88
2024/04/17 06:18:05;;;;;;;2.42;0.63;;;10.70;63.90;12.60;100984.00;;;;5442677;26;20350;-86
2024/04/17 06:20:34;;;;;;;1.40;0.65;;;10.70;63.90;12.70;100986.00;;;;5423530;26;20236;-85
2024/04/17 06:23:02;;;;;;;3.38;0.98;;;10.70;63.90;12.70;100975.00;;;;5448716;26;20272;-86
2024/04/17 06:25:30;;;;;;;1.25;0.60;;;10.80;64.00;12.80;100982.00;;;;5447048;26;20300;-82
2024/04/17 06:27:56;;;;;;;2.42;0.80;;;10.90;64.10;12.80;100985.00;;;;5448514;26;20251;-85
2024/04/17 06:30:25;;;;;;;5.25;0.93;;;11.00;64.20;12.90;100981.00;;;;5450318;26;20232;-84
2024/04/17 06:32:51;;;;;;;3.53;0.82;;;11.00;64.10;12.90;100987.00;;;;5449458;26;20244;-85
2024/04/17 06:35:23;;;;;;;1.90;0.80;;;11.00;64.00;13.00;100983.00;;;;5451171;26;20292;-84
2024/04/17 06:37:49;;;;;;;2.85;0.90;;;11.10;64.00;13.10;100985.00;;;;5449496;26;20256;-84
2024/04/17 06:40:18;;;;;;;3.60;0.73;;;11.20;64.10;13.10;100980.00;;;;5441785;26;20228;-86
2024/04/17 06:42:44;;;;;;;2.15;0.80;;;11.30;64.10;13.20;100977.00;;;;5449384;26;20350;-82
2024/04/17 06:45:12;;;;;;;3.17;1.23;;;11.30;64.20;13.30;100978.00;;;;5449568;26;20240;-84
2024/04/17 06:47:38;;;;;;;3.22;1.00;;;11.40;64.20;13.30;100978.00;;;;5447700;26;20240;-79
2024/04/17 06:50:08;;;;;;;4.90;0.90;;;11.40;64.00;13.40;100982.00;;;;5444092;26;20564;-83
2024/04/17 06:52:37;;;;;;;4.55;0.98;;;11.50;63.90;13.40;100978.00;;;;5440010;26;20346;-84
2024/04/17 06:55:06;;;;;;;6.05;0.93;;;11.60;63.60;13.40;100974.00;;;;5450033;26;20591;-85
2024/04/17 06:57:33;;;;;;;3.92;0.85;;;11.70;63.40;13.50;100976.00;;;;5437642;26;20300;-83
2024/04/17 07:00:02;;;;;;;1.90;0.52;;;11.70;63.20;13.50;100975.00;;;;5446665;26;20236;-83
2024/04/17 07:02:28;;;;;;;5.05;1.50;;;11.80;62.90;13.60;100988.00;;;;5434887;26;20236;-84
2024/04/17 07:04:56;;;;;;;2.00;0.60;;;11.90;63.00;13.60;100982.00;;;;5437448;26;20270;-82
2024/04/17 07:07:22;;;;;;;3.35;0.68;;;11.90;62.90;13.70;100985.00;;;;5442720;26;20841;-83
2024/04/17 07:09:54;;;;;;;2.85;0.77;;;11.90;62.80;13.70;100986.00;;;;5448561;26;20322;-82
2024/04/17 07:12:22;;;;;;;1.65;0.43;;;12.00;62.50;13.80;100986.00;;;;5446954;26;20344;-84
2024/04/17 07:14:49;;;;;;;2.78;0.47;;;12.00;62.30;13.80;100986.00;;;;5449788;26;20236;-82
2024/04/17 07:17:18;;;;;;;5.10;0.90;;;12.10;62.20;13.90;100984.00;;;;5445684;26;20602;-82
2024/04/17 07:19:44;;;;;;;4.47;0.80;;;12.10;62.90;13.90;100989.00;;;;5429011;26;20264;-83
2024/04/17 07:22:12;;;;;;;2.53;0.50;;;12.20;62.10;14.00;100987.00;;;;5447844;26;20236;-81
2024/04/17 07:24:39;;;;;;;2.47;0.93;;;12.20;61.90;14.00;100984.00;;;;5447553;26;20240;-80
2024/04/17 07:27:10;;;;;;;3.10;0.82;;;12.30;61.80;14.00;100986.00;;;;5445345;26;20587;-81
2024/04/17 07:29:36;;;;;;;2.90;0.90;;;12.30;61.70;14.10;100983.00;;;;5440807;26;20340;-81
2024/04/17 07:32:05;;;;;;;2.80;0.60;;;12.40;61.70;14.20;100979.00;;;;5447874;26;20278;-81
2024/04/17 07:34:31;;;;;;;2.95;0.65;;;12.50;61.60;14.30;100981.00;;;;5448911;26;20313;-81
2024/04/17 07:37:00;;;;;;;1.73;0.77;;;12.50;61.60;14.30;100981.00;;;;5439466;26;20235;-80
2024/04/17 07:39:26;;;;;;;4.82;0.63;;;12.60;61.50;14.40;100980.00;;;;5449470;26;20798;-81
2024/04/17 07:41:55;;;;;;;4.32;1.05;;;12.60;61.20;14.50;100980.00;;;;5426255;26;20284;-80
2024/04/17 07:44:24;;;;;;;8.55;0.90;;;12.70;61.30;14.60;100981.00;;;;5432785;26;20278;-81
2024/04/17 07:46:52;;;;;;;7.03;1.30;;;12.80;61.30;14.70;100978.00;;;;5446100;26;20282;-80
2024/04/17 07:49:18;;;;;;;2.30;0.70;;;12.90;61.40;14.80;100985.00;;;;5450149;26;20299;-81
2024/04/17 07:51:47;;;;;;;10.05;1.10;;;13.00;61.30;15.00;100993.00;;;;5450770;26;20727;-83
2024/04/17 07:54:13;;;;;;;4.05;0.55;;;13.10;61.20;15.10;100973.00;;;;5453198;26;20240;-79
2024/04/17 07:56:42;;;;;;;5.75;0.95;;;13.20;61.20;15.20;100976.00;;;;5452845;26;20713;-82
2024/04/17 07:59:08;;;;;;;1.48;0.60;;;13.30;60.70;15.30;100975.00;;;;5451133;26;20283;-80
2024/04/17 08:01:40;;;;;;;5.10;1.30;;;13.40;60.30;15.40;100970.00;;;;5436409;26;20229;-82
2024/04/17 08:04:06;;;;;;;4.25;0.75;;;13.50;60.00;15.50;100974.00;;;;5437045;26;20279;-81
2024/04/17 08:06:35;;;;;;;4.15;0.70;;;13.60;59.50;15.60;100966.00;;;;5444526;26;20556;-80
2024/04/17 08:09:01;;;;;;;2.38;0.40;;;13.70;59.30;15.60;100973.00;;;;5450507;26;20228;-86
2024/04/17 08:11:35;;;;;;;4.85;0.85;;;13.80;59.20;15.70;100963.00;;;;5450244;26;20793;-81
2024/04/17 08:14:01;;;;;;;2.47;0.50;;;13.90;58.90;15.70;100966.00;;;;5451077;26;20593;-80
2024/04/17 08:16:30;;;;;;;2.25;0.40;;;13.90;58.60;15.80;100960.00;;;;5450757;26;20228;-79
2024/04/17 08:18:58;;;;;;;3.70;0.90;;;14.00;58.40;15.90;100963.00;;;;5433411;26;20303;-80
2024/04/17 08:21:28;;;;;;;2.90;0.80;;;14.10;58.30;15.90;100963.00;;;;5449908;26;20729;-81
2024/04/17 08:23:55;;;;;;;3.05;0.70;;;14.10;58.10;15.90;100976.00;;;;5453044;26;20271;-78
2024/04/17 08:26:24;;;;;;;2.10;0.30;;;14.20;57.80;15.90;100988.00;;;;5451885;26;20229;-78
2024/04/17 08:28:50;;;;;;;1.75;0.52;;;14.20;57.40;15.80;100991.00;;;;5449596;26;20236;-84
2024/04/17 08:31:19;;;;;;;0.60;0.30;;;14.20;56.60;15.60;100992.00;;;;5449044;26;20288;-82
2024/04/17 08:33:45;;;;;;;3.75;0.60;;;14.10;56.70;15.50;101003.00;;;;5451813;26;20228;-81
2024/04/17 08:36:16;;;;;;;0.75;0.20;;;14.10;56.70;15.40;100999.00;;;;5452800;26;20235;-82
2024/04/17 08:38:42;;;;;;;0.90;0.40;;;13.90;57.30;15.30;100998.00;;;;5448955;26;20252;-83
2024/04/17 08:41:11;;;;;;;0.73;0.35;;;13.80;56.80;15.30;100998.00;;;;5448594;26;20236;-83
2024/04/17 08:43:38;;;;;;;0.95;0.10;;;13.70;57.00;15.20;100995.00;;;;5448826;26;20340;-79
2024/04/17 08:46:08;;;;;;;1.85;0.28;;;13.60;57.20;15.20;100994.00;;;;5451152;26;20228;-84
2024/04/17 08:48:39;;;;;;;0.85;0.13;;;13.50;57.30;15.10;100991.00;;;;5443580;26;20291;-80
2024/04/17 08:51:13;;;;;;;0.75;0.20;;;13.50;57.60;15.10;100988.00;;;;5454901;26;20304;-82
2024/04/17 08:53:43;;;;;;;0.98;0.40;;;13.40;57.90;15.10;100987.00;;;;5442367;26;20239;-81
2024/04/17 08:56:13;;;;;;;1.73;0.43;;;13.30;58.10;15.00;100983.00;;;;5446612;26;20280;-82
2024/04/17 08:58:45;;;;;;;2.30;0.57;;;13.30;58.20;15.00;100976.00;;;;5422052;26;20288;-80
2024/04/17 09:01:14;;;;;;;1.48;0.30;;;13.20;58.40;15.00;100985.00;;;;5447007;26;20232;-81
2024/04/17 09:03:43;;;;;;;0.60;0.20;;;13.20;58.60;15.00;100981.00;;;;5447058;26;20348;-81
2024/04/17 09:06:14;;;;;;;1.35;0.30;;;13.10;58.40;15.10;100981.00;;;;5447381;26;20228;-82
2024/04/17 09:08:44;;;;;;;2.08;0.38;;;13.20;58.60;15.10;100985.00;;;;5446293;26;20244;-78
2024/04/17 09:11:13;;;;;;;1.77;0.30;;;13.20;58.80;15.20;100986.00;;;;5446861;26;20299;-83
2024/04/17 09:13:39;;;;;;;2.20;0.47;;;13.30;58.80;15.20;100979.00;;;;5447421;26;20303;-82
2024/04/17 09:16:08;;;;;;;0.93;0.30;;;13.30;58.70;15.40;100989.00;;;;5451065;26;20329;-81
2024/04/17 09:18:37;;;;;;;0.98;0.32;;;13.40;58.50;15.40;100985.00;;;;5445829;26;20232;-78
2024/04/17 09:21:07;;;;;;;1.05;0.50;;;13.50;58.30;15.50;100985.00;;;;5439647;26;20292;-81
2024/04/17 09:23:33;;;;;;;1.73;0.40;;;13.60;58.10;15.60;100986.00;;;;5450227;26;20733;-83
2024/04/17 09:26:16;;;;;;;2.17;0.60;;;13.70;58.30;15.60;100981.00;;;;5448709;26;20733;-86
2024/04/17 09:28:42;;;;;;;3.03;0.40;;;13.80;58.10;15.80;100983.00;;;;5440411;26;20231;-83
2024/04/17 09:31:12;;;;;;;1.48;0.30;;;13.90;58.20;15.90;100971.00;;;;5450158;26;20273;-81
2024/04/17 09:33:43;;;;;;;2.65;0.50;;;14.00;57.80;16.00;100970.00;;;;5450318;26;20843;-83
2024/04/17 09:36:12;;;;;;;0.95;0.35;;;14.20;57.60;16.20;100977.00;;;;5446578;26;20576;-81
2024/04/17 09:38:38;;;;;;;2.08;0.40;;;14.30;57.70;16.30;100974.00;;;;5437287;26;20292;-84
2024/04/17 09:41:11;;;;;;;2.80;0.30;;;14.40;57.60;16.50;100968.00;;;;5458265;26;20300;-83
2024/04/17 09:43:42;;;;;;;0.85;0.40;;;14.50;57.50;16.60;100962.00;;;;5449073;26;20240;-83
2024/04/17 09:46:11;;;;;;;1.38;0.32;;;14.70;57.40;16.80;100958.00;;;;5445583;26;20228;-81
2024/04/17 09:48:41;;;;;;;1.85;0.40;;;14.80;57.20;17.00;100958.00;;;;5425037;26;20328;-85
2024/04/17 09:51:12;;;;;;;0.85;0.30;;;15.00;57.20;17.10;100958.00;;;;5451676;26;20228;-82
2024/04/17 09:53:46;;;;;;;1.10;0.20;;;15.20;57.00;17.20;100955.00;;;;5448300;26;20221;-81
2024/04/17 09:56:19;;;;;;;1.33;0.30;;;15.30;56.60;17.30;100958.00;;;;5445021;26;20231;-82
2024/04/17 09:58:48;;;;;;;1.17;0.35;;;15.40;56.00;17.50;100952.00;;;;5446375;26;20347;-80
2024/04/17 10:01:18;;;;;;;2.35;0.50;;;15.50;55.90;17.50;100956.00;;;;5430247;26;20225;-82
2024/04/17 10:03:47;;;;;;;0.93;0.30;;;15.60;55.80;17.60;100954.00;;;;5436063;26;20241;-81
2024/04/17 10:06:16;;;;;;;0.82;0.20;;;15.70;55.40;17.60;100957.00;;;;5435403;26;20231;-81
2024/04/17 10:08:45;;;;;;;2.75;0.40;;;15.80;55.20;17.60;100959.00;;;;5433747;26;20326;-83
2024/04/17 10:11:17;;;;;;;0.95;0.45;;;15.80;55.10;17.60;100957.00;;;;5439215;26;20305;-84
2024/04/17 10:13:48;;;;;;;0.60;0.30;;;15.80;54.90;17.60;100960.00;;;;5443788;26;20292;-82
2024/04/17 10:16:16;;;;;;;0.55;0.20;;;15.80;54.60;17.60;100959.00;;;;5428112;26;20252;-79
2024/04/17 10:18:43;;;;;;;6.32;0.80;;;15.80;54.60;17.60;100951.00;;;;5440417;26;20244;-79
2024/04/17 10:21:21;;;;;;;1.25;0.40;;;15.80;54.40;17.50;100960.00;;;;5436611;26;20388;-77
2024/04/17 10:23:59;;;;;;;3.22;0.60;;;15.80;54.30;17.50;100961.00;;;;5422668;26;20292;-79
2024/04/17 10:26:42;;;;;;;1.65;0.40;;;15.70;54.30;17.50;100955.00;;;;5422619;26;20276;-81
2024/04/17 10:29:15;;;;;;;0.50;0.22;;;15.70;54.40;17.60;100951.00;;;;5445179;26;20239;-79
2024/04/17 10:31:44;;;;;;;1.25;0.47;;;15.70;54.50;17.70;100953.00;;;;5444637;26;20225;-78
2024/04/17 10:34:10;;;;;;;0.52;0.38;;;15.70;54.70;17.70;100955.00;;;;5447858;26;20345;-78
2024/04/17 10:36:40;;;;;;;1.20;0.50;;;15.80;54.80;17.60;100953.00;;;;5438051;26;20232;-77
2024/04/17 10:39:06;;;;;;;2.67;0.40;;;15.70;54.60;17.60;100945.00;;;;5450711;26;20290;-78
2024/04/17 10:41:39;;;;;;;1.90;0.30;;;15.80;54.50;17.50;100944.00;;;;5450250;26;20561;-77
2024/04/17 10:44:06;;;;;;;2.13;0.60;;;15.70;54.20;17.60;100948.00;;;;5449678;26;20337;-78
2024/04/17 10:46:35;;;;;;;2.50;0.57;;;15.70;54.10;17.60;100944.00;;;;5447900;26;20788;-79
2024/04/17 10:49:01;;;;;;;1.70;0.60;;;15.70;54.10;17.60;100938.00;;;;5450197;26;20316;-79
2024/04/17 10:51:31;;;;;;;1.48;0.60;;;15.70;54.10;17.50;100945.00;;;;5446213;26;20232;-82